sensor_id;sensor_type;location;lat;lon;timestamp;pressure;altitude;pressure_sealevel;temperature;humidity
30021;BME280;16861;52.294;7.760;2023-02-03T00:00:38;100374.84;;;9.81;79.65
30021;BME280;16861;52.294;7.760;2023-02-03T00:03:07;100363.34;;;9.84;79.91
30021;BME280;16861;52.294;7.760;2023-02-03T00:05:37;100386.09;;;9.85;79.88
30021;BME280;16861;52.294;7.760;2023-02-03T00:08:06;100381.81;;;9.82;79.52
30021;BME280;16861;52.294;7.760;2023-02-03T00:10:35;100389.56;;;9.85;79.88
30021;BME280;16861;52.294;7.760;2023-02-03T00:13:02;100385.25;;;9.84;79.65
30021;BME280;16861;52.294;7.760;2023-02-03T00:15:28;100380.00;;;9.84;79.66
30021;BME280;16861;52.294;7.760;2023-02-03T00:17:55;100388.78;;;9.83;79.76
30021;BME280;16861;52.294;7.760;2023-02-03T00:20:22;100400.03;;;9.87;79.90
30021;BME280;16861;52.294;7.760;2023-02-03T00:22:51;100401.78;;;9.86;79.71
30021;BME280;16861;52.294;7.760;2023-02-03T00:25:20;100395.75;;;9.84;79.33
30021;BME280;16861;52.294;7.760;2023-02-03T00:27:49;100399.09;;;9.88;79.77
30021;BME280;16861;52.294;7.760;2023-02-03T00:30:25;100398.19;;;9.89;79.85
30021;BME280;16861;52.294;7.760;2023-02-03T00:32:54;100392.91;;;9.89;79.81
30021;BME280;16861;52.294;7.760;2023-02-03T00:35:23;100401.59;;;9.91;79.73
30021;BME280;16861;52.294;7.760;2023-02-03T00:37:54;100398.19;;;9.89;79.30
30021;BME280;16861;52.294;7.760;2023-02-03T00:40:23;100401.59;;;9.91;79.50
30021;BME280;16861;52.294;7.760;2023-02-03T00:42:51;100393.72;;;9.91;79.56
30021;BME280;16861;52.294;7.760;2023-02-03T00:45:18;100400.69;;;9.92;79.60
30021;BME280;16861;52.294;7.760;2023-02-03T00:47:47;100402.38;;;9.93;79.52
30021;BME280;16861;52.294;7.760;2023-02-03T00:50:13;100417.22;;;9.94;79.36
30021;BME280;16861;52.294;7.760;2023-02-03T00:52:40;100410.13;;;9.96;79.66
30021;BME280;16861;52.294;7.760;2023-02-03T00:55:12;100412.72;;;9.98;79.75
30021;BME280;16861;52.294;7.760;2023-02-03T00:57:39;100411.84;;;9.97;79.43
30021;BME280;16861;52.294;7.760;2023-02-03T01:00:06;100395.13;;;9.98;79.50
30021;BME280;16861;52.294;7.760;2023-02-03T01:02:33;100394.19;;;9.99;79.47
30021;BME280;16861;52.294;7.760;2023-02-03T01:05:01;100386.31;;;9.99;79.16
30021;BME280;16861;52.294;7.760;2023-02-03T01:07:30;100387.19;;;10.00;79.18
30021;BME280;16861;52.294;7.760;2023-02-03T01:09:57;100399.41;;;10.01;79.46
30021;BME280;16861;52.294;7.760;2023-02-03T01:12:23;100394.13;;;10.01;79.38
30021;BME280;16861;52.294;7.760;2023-02-03T01:14:50;100395.88;;;10.02;79.11
30021;BME280;16861;52.294;7.760;2023-02-03T01:17:17;100399.34;;;10.02;79.18
30021;BME280;16861;52.294;7.760;2023-02-03T01:19:43;100406.28;;;10.03;79.16
30021;BME280;16861;52.294;7.760;2023-02-03T01:22:13;100407.16;;;10.04;79.12
30021;BME280;16861;52.294;7.760;2023-02-03T01:24:39;100407.09;;;10.06;79.25
30021;BME280;16861;52.294;7.760;2023-02-03T01:27:06;100374.66;;;10.05;79.38
30021;BME280;16861;52.294;7.760;2023-02-03T01:29:33;100386.06;;;10.06;79.08
30021;BME280;16861;52.294;7.760;2023-02-03T01:32:02;100379.88;;;10.07;79.00
30021;BME280;16861;52.294;7.760;2023-02-03T01:34:28;100375.47;;;10.07;78.74
30021;BME280;16861;52.294;7.760;2023-02-03T01:36:55;100376.31;;;10.08;78.99
30021;BME280;16861;52.294;7.760;2023-02-03T01:39:22;100386.81;;;10.08;78.75
30021;BME280;16861;52.294;7.760;2023-02-03T01:41:48;100399.16;;;10.07;78.70
30021;BME280;16861;52.294;7.760;2023-02-03T01:44:50;100401.91;;;10.04;77.96
30021;BME280;16861;52.294;7.760;2023-02-03T01:47:25;100400.78;;;10.10;78.79
30021;BME280;16861;52.294;7.760;2023-02-03T01:50:09;100373.59;;;10.09;78.90
30021;BME280;16861;52.294;7.760;2023-02-03T01:52:40;100372.84;;;10.07;78.76
30021;BME280;16861;52.294;7.760;2023-02-03T01:55:10;100348.31;;;10.07;78.32
30021;BME280;16861;52.294;7.760;2023-02-03T01:57:59;100336.16;;;10.04;78.04
30021;BME280;16861;52.294;7.760;2023-02-03T02:00:28;100328.13;;;10.07;78.68
30021;BME280;16861;52.294;7.760;2023-02-03T02:02:58;100328.19;;;10.06;78.72
30021;BME280;16861;52.294;7.760;2023-02-03T02:06:00;100327.38;;;10.03;78.06
30021;BME280;16861;52.294;7.760;2023-02-03T02:08:25;100321.00;;;10.09;78.84
30021;BME280;16861;52.294;7.760;2023-02-03T02:10:52;100323.69;;;10.08;78.91
30021;BME280;16861;52.294;7.760;2023-02-03T02:13:19;100324.56;;;10.08;78.87
30021;BME280;16861;52.294;7.760;2023-02-03T02:18:57;100320.31;;;10.06;77.87
30021;BME280;16861;52.294;7.760;2023-02-03T02:27:28;100319.44;;;10.05;77.53
30021;BME280;16861;52.294;7.760;2023-02-03T02:30:24;100322.94;;;10.06;77.63
30021;BME280;16861;52.294;7.760;2023-02-03T02:38:31;100331.69;;;10.06;77.83
30021;BME280;16861;52.294;7.760;2023-02-03T02:41:04;100342.03;;;10.09;78.45
30021;BME280;16861;52.294;7.760;2023-02-03T02:43:47;100339.66;;;10.04;77.03
30021;BME280;16861;52.294;7.760;2023-02-03T02:46:30;100355.44;;;10.04;77.40
30021;BME280;16861;52.294;7.760;2023-02-03T02:49:10;100344.03;;;10.04;77.61
30021;BME280;16861;52.294;7.760;2023-02-03T02:51:40;100343.91;;;10.07;78.47
30021;BME280;16861;52.294;7.760;2023-02-03T02:54:15;100322.88;;;10.07;78.27
30021;BME280;16861;52.294;7.760;2023-02-03T02:56:51;100314.97;;;10.07;77.81
30021;BME280;16861;52.294;7.760;2023-02-03T02:59:21;100314.97;;;10.07;78.29
30021;BME280;16861;52.294;7.760;2023-02-03T03:01:52;100321.00;;;10.09;78.24
30021;BME280;16861;52.294;7.760;2023-02-03T03:04:25;100314.03;;;10.08;78.34
30021;BME280;16861;52.294;7.760;2023-02-03T03:07:03;100321.22;;;10.04;77.27
30021;BME280;16861;52.294;7.760;2023-02-03T03:09:36;100307.91;;;10.08;77.88
30021;BME280;16861;52.294;7.760;2023-02-03T03:12:10;100293.06;;;10.07;77.89
30021;BME280;16861;52.294;7.760;2023-02-03T03:14:49;100299.97;;;10.09;78.02
30021;BME280;16861;52.294;7.760;2023-02-03T03:17:25;100309.66;;;10.09;77.85
30021;BME280;16861;52.294;7.760;2023-02-03T03:20:02;100306.09;;;10.10;77.77
30021;BME280;16861;52.294;7.760;2023-02-03T03:23:10;100307.16;;;10.06;76.72
30021;BME280;16861;52.294;7.760;2023-02-03T03:25:45;100306.09;;;10.10;77.73
30021;BME280;16861;52.294;7.760;2023-02-03T03:28:23;100308.84;;;10.07;77.07
30021;BME280;16861;52.294;7.760;2023-02-03T03:30:52;100294.63;;;10.11;78.03
30021;BME280;16861;52.294;7.760;2023-02-03T03:33:19;100286.88;;;10.08;77.76
30021;BME280;16861;52.294;7.760;2023-02-03T03:36:15;100300.97;;;10.07;77.42
30021;BME280;16861;52.294;7.760;2023-02-03T03:38:43;100285.19;;;10.07;77.24
30021;BME280;16861;52.294;7.760;2023-02-03T03:41:40;100283.47;;;10.06;77.13
30021;BME280;16861;52.294;7.760;2023-02-03T03:44:09;100273.72;;;10.08;76.38
30021;BME280;16861;52.294;7.760;2023-02-03T03:46:47;100274.53;;;10.10;76.85
30021;BME280;16861;52.294;7.760;2023-02-03T03:49:18;100271.88;;;10.10;77.37
30021;BME280;16861;52.294;7.760;2023-02-03T03:51:55;100273.81;;;10.06;76.80
30021;BME280;16861;52.294;7.760;2023-02-03T03:54:25;100291.38;;;10.06;77.47
30021;BME280;16861;52.294;7.760;2023-02-03T03:56:57;100287.88;;;10.05;77.67
30021;BME280;16861;52.294;7.760;2023-02-03T03:59:31;100269.53;;;10.03;77.38
30021;BME280;16861;52.294;7.760;2023-02-03T04:02:09;100271.25;;;10.04;77.66
30021;BME280;16861;52.294;7.760;2023-02-03T04:04:38;100290.50;;;10.05;77.56
30021;BME280;16861;52.294;7.760;2023-02-03T04:07:05;100272.97;;;10.06;77.62
30021;BME280;16861;52.294;7.760;2023-02-03T04:09:31;100284.34;;;10.06;77.66
30021;BME280;16861;52.294;7.760;2023-02-03T04:12:02;100286.97;;;10.06;77.68
30021;BME280;16861;52.294;7.760;2023-02-03T04:14:34;100287.81;;;10.07;77.36
30021;BME280;16861;52.294;7.760;2023-02-03T04:17:03;100280.78;;;10.07;77.41
30021;BME280;16861;52.294;7.760;2023-02-03T04:19:29;100271.97;;;10.08;77.46
30021;BME280;16861;52.294;7.760;2023-02-03T04:21:56;100268.47;;;10.08;77.40
30021;BME280;16861;52.294;7.760;2023-02-03T04:24:23;100278.91;;;10.09;77.27
30021;BME280;16861;52.294;7.760;2023-02-03T04:26:49;100278.91;;;10.09;77.34
30021;BME280;16861;52.294;7.760;2023-02-03T04:29:16;100291.13;;;10.10;77.13
30021;BME280;16861;52.294;7.760;2023-02-03T04:31:44;100258.72;;;10.10;77.08
30021;BME280;16861;52.294;7.760;2023-02-03T04:34:11;100262.31;;;10.09;76.97
30021;BME280;16861;52.294;7.760;2023-02-03T04:36:38;100264.00;;;10.10;76.94
30021;BME280;16861;52.294;7.760;2023-02-03T04:39:04;100260.50;;;10.09;77.18
30021;BME280;16861;52.294;7.760;2023-02-03T04:41:31;100270.09;;;10.10;77.15
30021;BME280;16861;52.294;7.760;2023-02-03T04:43:57;100266.63;;;10.10;76.95
30021;BME280;16861;52.294;7.760;2023-02-03T04:46:24;100255.16;;;10.11;77.06
30021;BME280;16861;52.294;7.760;2023-02-03T04:48:50;100249.91;;;10.11;77.10
30021;BME280;16861;52.294;7.760;2023-02-03T04:51:17;100249.91;;;10.11;76.95
30021;BME280;16861;52.294;7.760;2023-02-03T04:53:45;100258.59;;;10.13;76.96
30021;BME280;16861;52.294;7.760;2023-02-03T04:58:41;100262.06;;;10.13;77.19
30021;BME280;16861;52.294;7.760;2023-02-03T05:01:08;100248.91;;;10.13;76.82
30021;BME280;16861;52.294;7.760;2023-02-03T05:03:35;100237.56;;;10.13;77.10
30021;BME280;16861;52.294;7.760;2023-02-03T05:06:01;100232.19;;;10.14;77.13
30021;BME280;16861;52.294;7.760;2023-02-03T05:08:29;100234.94;;;10.13;76.69
30021;BME280;16861;52.294;7.760;2023-02-03T05:10:56;100231.44;;;10.12;76.67
30021;BME280;16861;52.294;7.760;2023-02-03T05:13:26;100239.31;;;10.12;76.56
30021;BME280;16861;52.294;7.760;2023-02-03T05:15:52;100255.03;;;10.14;76.57
30021;BME280;16861;52.294;7.760;2023-02-03T05:18:18;100251.59;;;10.12;76.69
30021;BME280;16861;52.294;7.760;2023-02-03T05:20:45;100241.94;;;10.12;76.78
30021;BME280;16861;52.294;7.760;2023-02-03T05:23:11;100245.50;;;10.11;76.91
30021;BME280;16861;52.294;7.760;2023-02-03T05:25:38;100229.72;;;10.11;77.05
30021;BME280;16861;52.294;7.760;2023-02-03T05:28:04;100244.78;;;10.08;76.74
30021;BME280;16861;52.294;7.760;2023-02-03T05:30:31;100234.44;;;10.04;76.80
30021;BME280;16861;52.294;7.760;2023-02-03T05:32:58;100246.66;;;10.06;76.94
30021;BME280;16861;52.294;7.760;2023-02-03T05:35:24;100219.41;;;10.07;77.01
30021;BME280;16861;52.294;7.760;2023-02-03T05:37:51;100238.81;;;10.04;76.99
30021;BME280;16861;52.294;7.760;2023-02-03T05:40:17;100220.34;;;10.06;77.15
30021;BME280;16861;52.294;7.760;2023-02-03T05:43:02;100258.94;;;10.05;77.18
30021;BME280;16861;52.294;7.760;2023-02-03T05:45:28;100229.16;;;10.04;77.16
30021;BME280;16861;52.294;7.760;2023-02-03T05:47:55;100242.31;;;10.04;77.22
30021;BME280;16861;52.294;7.760;2023-02-03T05:50:22;100238.81;;;10.04;77.11
30021;BME280;16861;52.294;7.760;2023-02-03T05:52:48;100239.69;;;10.04;77.29
30021;BME280;16861;52.294;7.760;2023-02-03T05:55:15;100231.75;;;10.06;77.33
30021;BME280;16861;52.294;7.760;2023-02-03T05:57:41;100235.19;;;10.07;77.38
30021;BME280;16861;52.294;7.760;2023-02-03T06:00:08;100225.59;;;10.06;77.54
30021;BME280;16861;52.294;7.760;2023-02-03T06:02:35;100232.56;;;10.07;77.29
30021;BME280;16861;52.294;7.760;2023-02-03T06:05:01;100225.53;;;10.07;77.55
30021;BME280;16861;52.294;7.760;2023-02-03T06:07:28;100214.09;;;10.08;77.41
30021;BME280;16861;52.294;7.760;2023-02-03T06:09:54;100241.31;;;10.07;77.55
30021;BME280;16861;52.294;7.760;2023-02-03T06:12:20;100223.75;;;10.08;77.41
30021;BME280;16861;52.294;7.760;2023-02-03T06:14:47;100234.19;;;10.09;77.46
30021;BME280;16861;52.294;7.760;2023-02-03T06:17:13;100242.09;;;10.09;77.65
30021;BME280;16861;52.294;7.760;2023-02-03T06:19:40;100246.41;;;10.10;77.87
30021;BME280;16861;52.294;7.760;2023-02-03T06:22:06;100250.78;;;10.11;77.50
30021;BME280;16861;52.294;7.760;2023-02-03T06:24:32;100234.00;;;10.14;77.86
30021;BME280;16861;52.294;7.760;2023-02-03T06:26:59;100233.94;;;10.15;77.69
30021;BME280;16861;52.294;7.760;2023-02-03T06:29:25;100225.97;;;10.17;77.70
30021;BME280;16861;52.294;7.760;2023-02-03T06:31:52;100230.22;;;10.20;77.66
30021;BME280;16861;52.294;7.760;2023-02-03T06:34:18;100242.38;;;10.22;77.52
30021;BME280;16861;52.294;7.760;2023-02-03T06:36:45;100235.25;;;10.24;77.48
30021;BME280;16861;52.294;7.760;2023-02-03T06:39:12;100245.78;;;10.24;77.32
30021;BME280;16861;52.294;7.760;2023-02-03T06:41:38;100251.75;;;10.28;77.28
30021;BME280;16861;52.294;7.760;2023-02-03T06:44:05;100249.97;;;10.28;77.12
30021;BME280;16861;52.294;7.760;2023-02-03T06:46:31;100243.75;;;10.29;77.11
30021;BME280;16861;52.294;7.760;2023-02-03T06:48:59;100241.94;;;10.32;77.20
30021;BME280;16861;52.294;7.760;2023-02-03T06:51:25;100251.44;;;10.34;77.10
30021;BME280;16861;52.294;7.760;2023-02-03T06:53:51;100241.78;;;10.35;76.95
30021;BME280;16861;52.294;7.760;2023-02-03T06:56:18;100251.38;;;10.36;77.09
30021;BME280;16861;52.294;7.760;2023-02-03T06:58:44;100250.38;;;10.38;76.89
30021;BME280;16861;52.294;7.760;2023-02-03T07:01:11;100256.50;;;10.39;76.75
30021;BME280;16861;52.294;7.760;2023-02-03T07:03:37;100239.78;;;10.40;76.78
30021;BME280;16861;52.294;7.760;2023-02-03T07:06:04;100242.41;;;10.40;76.87
30021;BME280;16861;52.294;7.760;2023-02-03T07:08:30;100236.22;;;10.41;76.88
30021;BME280;16861;52.294;7.760;2023-02-03T07:10:57;100242.34;;;10.41;76.84
30021;BME280;16861;52.294;7.760;2023-02-03T07:13:23;100250.25;;;10.41;76.80
30021;BME280;16861;52.294;7.760;2023-02-03T07:15:49;100244.03;;;10.42;76.77
30021;BME280;16861;52.294;7.760;2023-02-03T07:18:16;100254.56;;;10.42;76.71
30021;BME280;16861;52.294;7.760;2023-02-03T07:21:05;100260.78;;;10.41;76.84
30021;BME280;16861;52.294;7.760;2023-02-03T07:23:32;100264.22;;;10.42;76.59
30021;BME280;16861;52.294;7.760;2023-02-03T07:25:59;100248.63;;;10.39;76.72
30021;BME280;16861;52.294;7.760;2023-02-03T07:28:26;100246.88;;;10.38;76.92
30021;BME280;16861;52.294;7.760;2023-02-03T07:30:52;100241.78;;;10.35;76.82
30021;BME280;16861;52.294;7.760;2023-02-03T07:33:18;100237.44;;;10.34;77.04
30021;BME280;16861;52.294;7.760;2023-02-03T07:35:52;100243.88;;;10.28;76.70
30021;BME280;16861;52.294;7.760;2023-02-03T07:38:19;100237.66;;;10.29;77.25
30021;BME280;16861;52.294;7.760;2023-02-03T07:40:45;100244.75;;;10.27;77.27
30021;BME280;16861;52.294;7.760;2023-02-03T07:43:12;100244.00;;;10.25;77.45
30021;BME280;16861;52.294;7.760;2023-02-03T07:45:38;100235.31;;;10.23;77.54
30021;BME280;16861;52.294;7.760;2023-02-03T07:48:05;100248.47;;;10.23;77.76
30021;BME280;16861;52.294;7.760;2023-02-03T07:50:31;100241.44;;;10.23;77.87
30021;BME280;16861;52.294;7.760;2023-02-03T07:52:59;100254.53;;;10.25;78.03
30021;BME280;16861;52.294;7.760;2023-02-03T07:55:25;100256.16;;;10.27;77.98
30021;BME280;16861;52.294;7.760;2023-02-03T07:57:53;100241.31;;;10.26;78.07
30021;BME280;16861;52.294;7.760;2023-02-03T08:00:20;100251.66;;;10.29;78.10
30021;BME280;16861;52.294;7.760;2023-02-03T08:02:46;100247.19;;;10.32;78.20
30021;BME280;16861;52.294;7.760;2023-02-03T08:05:13;100239.16;;;10.35;77.95
30021;BME280;16861;52.294;7.760;2023-02-03T08:07:40;100246.06;;;10.37;78.03
30021;BME280;16861;52.294;7.760;2023-02-03T08:10:09;100255.56;;;10.40;78.06
30021;BME280;16861;52.294;7.760;2023-02-03T08:12:36;100268.53;;;10.45;78.12
30021;BME280;16861;52.294;7.760;2023-02-03T08:15:03;100263.19;;;10.46;78.17
30021;BME280;16861;52.294;7.760;2023-02-03T08:17:30;100250.75;;;10.50;78.19
30021;BME280;16861;52.294;7.760;2023-02-03T08:19:56;100244.47;;;10.52;77.97
30021;BME280;16861;52.294;7.760;2023-02-03T08:22:22;100245.19;;;10.56;77.85
30021;BME280;16861;52.294;7.760;2023-02-03T08:24:49;100242.34;;;10.61;77.89
30021;BME280;16861;52.294;7.760;2023-02-03T08:27:17;100254.56;;;10.62;77.68
30021;BME280;16861;52.294;7.760;2023-02-03T08:29:44;100235.06;;;10.66;77.78
30021;BME280;16861;52.294;7.760;2023-02-03T08:32:13;100234.03;;;10.68;77.84
30021;BME280;16861;52.294;7.760;2023-02-03T08:34:40;100236.53;;;10.72;77.74
30021;BME280;16861;52.294;7.760;2023-02-03T08:37:07;100236.28;;;10.76;77.84
30021;BME280;16861;52.294;7.760;2023-02-03T08:39:34;100242.34;;;10.78;77.42
30021;BME280;16861;52.294;7.760;2023-02-03T08:42:00;100241.41;;;10.79;77.27
30021;BME280;16861;52.294;7.760;2023-02-03T08:44:30;100244.81;;;10.81;77.04
30021;BME280;16861;52.294;7.760;2023-02-03T08:46:57;100235.13;;;10.82;77.14
30021;BME280;16861;52.294;7.760;2023-02-03T08:49:25;100229.00;;;10.81;76.93
30021;BME280;16861;52.294;7.760;2023-02-03T08:51:53;100243.78;;;10.84;77.02
30021;BME280;16861;52.294;7.760;2023-02-03T08:54:19;100244.66;;;10.85;77.14
30021;BME280;16861;52.294;7.760;2023-02-03T08:56:47;100248.97;;;10.86;77.29
30021;BME280;16861;52.294;7.760;2023-02-03T08:59:14;100241.00;;;10.87;77.20
30021;BME280;16861;52.294;7.760;2023-02-03T09:01:41;100247.13;;;10.88;77.37
30021;BME280;16861;52.294;7.760;2023-02-03T09:04:11;100244.50;;;10.88;76.61
30021;BME280;16861;52.294;7.760;2023-02-03T09:06:38;100247.81;;;10.91;77.17
30021;BME280;16861;52.294;7.760;2023-02-03T09:09:04;100248.75;;;10.90;77.16
30021;BME280;16861;52.294;7.760;2023-02-03T09:11:31;100248.69;;;10.92;77.19
30021;BME280;16861;52.294;7.760;2023-02-03T09:13:57;100241.63;;;10.92;76.94
30021;BME280;16861;52.294;7.760;2023-02-03T09:16:24;100242.41;;;10.94;76.88
30021;BME280;16861;52.294;7.760;2023-02-03T09:18:50;100244.09;;;10.95;77.06
30021;BME280;16861;52.294;7.760;2023-02-03T09:21:17;100257.22;;;10.97;76.95
30021;BME280;16861;52.294;7.760;2023-02-03T09:24:04;100257.13;;;10.99;76.82
30021;BME280;16861;52.294;7.760;2023-02-03T09:26:30;100245.66;;;11.00;76.90
30021;BME280;16861;52.294;7.760;2023-02-03T09:28:56;100250.06;;;10.99;76.86
30021;BME280;16861;52.294;7.760;2023-02-03T09:31:23;100229.00;;;10.99;76.49
30021;BME280;16861;52.294;7.760;2023-02-03T09:33:49;100240.41;;;11.00;76.58
30021;BME280;16861;52.294;7.760;2023-02-03T09:36:16;100242.16;;;10.99;76.91
30021;BME280;16861;52.294;7.760;2023-02-03T09:38:42;100242.16;;;10.99;76.82
30021;BME280;16861;52.294;7.760;2023-02-03T09:44:00;100237.22;;;10.93;75.93
30021;BME280;16861;52.294;7.760;2023-02-03T09:46:37;100248.50;;;10.95;75.90
30021;BME280;16861;52.294;7.760;2023-02-03T09:49:10;100245.88;;;10.95;76.45
30021;BME280;16861;52.294;7.760;2023-02-03T09:51:46;100241.69;;;10.91;76.30
30021;BME280;16861;52.294;7.760;2023-02-03T09:54:52;100250.59;;;10.88;76.04
30021;BME280;16861;52.294;7.760;2023-02-03T09:57:23;100246.06;;;10.92;77.00
30021;BME280;16861;52.294;7.760;2023-02-03T09:59:51;100261.84;;;10.92;77.30
30021;BME280;16861;52.294;7.760;2023-02-03T10:02:30;100275.03;;;10.92;76.85
30021;BME280;16861;52.294;7.760;2023-02-03T10:05:05;100281.19;;;10.91;76.76
30021;BME280;16861;52.294;7.760;2023-02-03T10:07:55;100293.53;;;10.90;75.30
30021;BME280;16861;52.294;7.760;2023-02-03T10:10:34;100295.16;;;10.93;76.61
30021;BME280;16861;52.294;7.760;2023-02-03T10:13:30;100293.41;;;10.93;76.37
30021;BME280;16861;52.294;7.760;2023-02-03T10:16:15;100303.69;;;10.98;76.46
30021;BME280;16861;52.294;7.760;2023-02-03T10:18:50;100305.38;;;10.99;76.46
30021;BME280;16861;52.294;7.760;2023-02-03T10:21:33;100307.09;;;11.00;76.41
30021;BME280;16861;52.294;7.760;2023-02-03T10:24:03;100307.81;;;11.04;76.87
30021;BME280;16861;52.294;7.760;2023-02-03T10:26:31;100323.53;;;11.05;77.13
30021;BME280;16861;52.294;7.760;2023-02-03T10:29:11;100321.84;;;11.04;75.85
30021;BME280;16861;52.294;7.760;2023-02-03T10:31:41;100346.25;;;11.08;75.85
30021;BME280;16861;52.294;7.760;2023-02-03T10:34:10;100342.59;;;11.11;76.83
30021;BME280;16861;52.294;7.760;2023-02-03T10:36:56;100328.00;;;11.03;75.78
30021;BME280;16861;52.294;7.760;2023-02-03T10:39:42;100321.91;;;11.03;76.09
30021;BME280;16861;52.294;7.760;2023-02-03T10:42:11;100324.63;;;11.01;76.76
30021;BME280;16861;52.294;7.760;2023-02-03T10:44:46;100346.69;;;10.99;76.78
30021;BME280;16861;52.294;7.760;2023-02-03T10:47:20;100354.59;;;10.99;77.03
30021;BME280;16861;52.294;7.760;2023-02-03T10:49:54;100338.06;;;10.95;76.65
30021;BME280;16861;52.294;7.760;2023-02-03T10:52:30;100333.75;;;10.94;76.81
30021;BME280;16861;52.294;7.760;2023-02-03T10:54:57;100358.25;;;10.96;77.22
30021;BME280;16861;52.294;7.760;2023-02-03T11:00:22;100349.53;;;10.94;76.33
30021;BME280;16861;52.294;7.760;2023-02-03T11:02:58;100362.56;;;10.97;76.49
30021;BME280;16861;52.294;7.760;2023-02-03T11:05:29;100362.44;;;11.00;77.27
30021;BME280;16861;52.294;7.760;2023-02-03T11:07:55;100363.19;;;11.02;76.93
30021;BME280;16861;52.294;7.760;2023-02-03T11:10:38;100370.34;;;11.00;75.99
30021;BME280;16861;52.294;7.760;2023-02-03T11:13:24;100368.41;;;11.04;76.23
30021;BME280;16861;52.294;7.760;2023-02-03T11:16:13;100371.97;;;11.03;75.66
30021;BME280;16861;52.294;7.760;2023-02-03T11:18:57;100381.56;;;11.04;75.74
30021;BME280;16861;52.294;7.760;2023-02-03T11:24:23;100378.00;;;11.05;75.83
30021;BME280;16861;52.294;7.760;2023-02-03T11:27:02;100373.59;;;11.05;76.11
30021;BME280;16861;52.294;7.760;2023-02-03T11:29:36;100373.59;;;11.05;75.68
30021;BME280;16861;52.294;7.760;2023-02-03T11:32:32;100381.56;;;11.04;75.49
30021;BME280;16861;52.294;7.760;2023-02-03T11:35:03;100376.09;;;11.08;76.34
30021;BME280;16861;52.294;7.760;2023-02-03T11:37:38;100377.94;;;11.06;75.79
30021;BME280;16861;52.294;7.760;2023-02-03T11:42:43;100379.69;;;11.06;75.80
30021;BME280;16861;52.294;7.760;2023-02-03T11:50:45;100381.50;;;11.05;75.82
30021;BME280;16861;52.294;7.760;2023-02-03T11:56:12;100400.88;;;11.04;75.61
30021;BME280;16861;52.294;7.760;2023-02-03T11:59:02;100385.81;;;11.06;76.26
30021;BME280;16861;52.294;7.760;2023-02-03T12:18:26;100392.13;;;11.39;76.03
30021;BME280;16861;52.294;7.760;2023-02-03T12:24:10;100406.88;;;11.43;73.82
30021;BME280;16861;52.294;7.760;2023-02-03T12:26:49;100401.53;;;11.45;73.81
30021;BME280;16861;52.294;7.760;2023-02-03T12:29:24;100408.34;;;11.49;73.65
30021;BME280;16861;52.294;7.760;2023-02-03T12:32:22;100387.25;;;11.49;72.44
30021;BME280;16861;52.294;7.760;2023-02-03T12:35:09;100384.22;;;11.57;74.78
30021;BME280;16861;52.294;7.760;2023-02-03T12:38:04;100402.75;;;11.55;72.47
30021;BME280;16861;52.294;7.760;2023-02-03T12:46:02;100420.84;;;11.63;73.74
30021;BME280;16861;52.294;7.760;2023-02-03T12:48:44;100400.72;;;11.60;71.21
30021;BME280;16861;52.294;7.760;2023-02-03T12:51:17;100409.34;;;11.64;73.07
30021;BME280;16861;52.294;7.760;2023-02-03T12:53:53;100414.69;;;11.63;72.45
30021;BME280;16861;52.294;7.760;2023-02-03T12:56:32;100418.44;;;11.58;71.07
30021;BME280;16861;52.294;7.760;2023-02-03T12:59:03;100416.66;;;11.59;72.29
30021;BME280;16861;52.294;7.760;2023-02-03T13:01:57;100419.50;;;11.54;71.59
30021;BME280;16861;52.294;7.760;2023-02-03T13:09:48;100410.13;;;11.49;70.92
30021;BME280;16861;52.294;7.760;2023-02-03T13:12:37;100409.44;;;11.45;70.02
30021;BME280;16861;52.294;7.760;2023-02-03T13:15:23;100406.78;;;11.45;71.34
30021;BME280;16861;52.294;7.760;2023-02-03T13:18:07;100399.91;;;11.42;71.04
30021;BME280;16861;52.294;7.760;2023-02-03T13:20:40;100411.13;;;11.46;72.42
30021;BME280;16861;52.294;7.760;2023-02-03T13:23:12;100415.72;;;11.42;71.38
30021;BME280;16861;52.294;7.760;2023-02-03T13:42:46;100457.63;;;11.29;71.40
30021;BME280;16861;52.294;7.760;2023-02-03T13:45:37;100451.72;;;11.24;68.83
30021;BME280;16861;52.294;7.760;2023-02-03T13:48:23;100454.38;;;11.24;69.88
30021;BME280;16861;52.294;7.760;2023-02-03T13:51:01;100452.72;;;11.21;68.29
30021;BME280;16861;52.294;7.760;2023-02-03T13:53:34;100450.09;;;11.21;69.73
30021;BME280;16861;52.294;7.760;2023-02-03T13:56:02;100452.72;;;11.21;70.65
30021;BME280;16861;52.294;7.760;2023-02-03T13:58:34;100477.47;;;11.19;69.65
30021;BME280;16861;52.294;7.760;2023-02-03T14:01:25;100475.09;;;11.13;67.42
30021;BME280;16861;52.294;7.760;2023-02-03T14:03:52;100478.47;;;11.16;70.42
30021;BME280;16861;52.294;7.760;2023-02-03T14:09:20;100475.34;;;11.08;67.52
30021;BME280;16861;52.294;7.760;2023-02-03T14:11:50;100478.84;;;11.08;69.89
30021;BME280;16861;52.294;7.760;2023-02-03T14:16:47;100485.19;;;11.04;70.26
30021;BME280;16861;52.294;7.760;2023-02-03T14:24:47;100502.06;;;11.00;70.16
30021;BME280;16861;52.294;7.760;2023-02-03T14:27:20;100498.63;;;10.98;67.55
30021;BME280;16861;52.294;7.760;2023-02-03T14:30:10;100478.69;;;10.92;65.67
30021;BME280;16861;52.294;7.760;2023-02-03T14:32:57;100513.91;;;10.90;66.28
30021;BME280;16861;52.294;7.760;2023-02-03T14:35:32;100521.81;;;10.90;67.90
30021;BME280;16861;52.294;7.760;2023-02-03T14:38:02;100521.06;;;10.88;68.76
30021;BME280;16861;52.294;7.760;2023-02-03T14:43:17;100523.06;;;10.82;69.23
30021;BME280;16861;52.294;7.760;2023-02-03T14:57:35;100550.13;;;10.65;67.07
30021;BME280;16861;52.294;7.760;2023-02-03T15:02:39;100565.09;;;10.65;67.87
30021;BME280;16861;52.294;7.760;2023-02-03T15:07:52;100552.00;;;10.63;69.38